Time;durP1;ratioP1;P1;durP2;ratioP2;P2;SDS_P1;SDS_P2;PMS_P1;PMS_P2;Temp;Humidity;BMP_temperature;BMP_pressure;BME280_temperature;BME280_humidity;BME280_pressure;Samples;Min_cycle;Max_cycle;Signal;HPM_P1;HPM_P2
2023/11/08 00:01:00;;;;;;;3.38;1.25;;;9.60;99.90;;;;;;10022221;28;20102;-68
2023/11/08 00:05:51;;;;;;;1.95;0.98;;;9.60;99.90;;;;;;10021533;28;20101;-69
2023/11/08 00:10:43;;;;;;;1.20;0.80;;;9.60;99.90;;;;;;10024408;28;20036;-69
2023/11/08 00:15:33;;;;;;;2.47;1.75;;;9.70;99.90;;;;;;10023591;28;20416;-68
2023/11/08 00:20:24;;;;;;;2.28;1.25;;;9.70;99.90;;;;;;10020429;28;20128;-69
2023/11/08 00:25:15;;;;;;;1.50;1.10;;;9.70;99.90;;;;;;10024046;28;20607;-68
2023/11/08 00:30:07;;;;;;;1.55;1.02;;;9.70;99.90;;;;;;10019420;28;20030;-69
2023/11/08 00:34:57;;;;;;;1.65;1.25;;;9.70;99.90;;;;;;10018578;28;20041;-67
2023/11/08 00:39:48;;;;;;;2.15;1.27;;;9.70;99.90;;;;;;10002240;28;20645;-67
2023/11/08 00:44:39;;;;;;;2.80;0.68;;;9.70;99.90;;;;;;10023842;28;20026;-70
2023/11/08 00:49:29;;;;;;;2.42;0.85;;;9.70;99.90;;;;;;10000974;28;20025;-70
2023/11/08 00:54:20;;;;;;;1.70;1.02;;;9.70;99.90;;;;;;10019484;28;20045;-68
2023/11/08 00:59:11;;;;;;;3.13;1.17;;;9.70;99.90;;;;;;10024644;28;20120;-67
2023/11/08 01:04:03;;;;;;;1.40;1.30;;;9.70;99.90;;;;;;10018616;28;20446;-66
2023/11/08 01:08:54;;;;;;;1.38;1.08;;;9.70;99.90;;;;;;10017382;28;20045;-66
2023/11/08 01:13:45;;;;;;;2.95;1.25;;;9.70;99.90;;;;;;10019505;28;20474;-68
2023/11/08 01:18:36;;;;;;;1.98;1.35;;;9.70;99.90;;;;;;10018616;28;20018;-67
2023/11/08 01:23:27;;;;;;;2.35;0.90;;;9.70;99.90;;;;;;10029790;28;20535;-66
2023/11/08 01:28:17;;;;;;;2.55;1.60;;;9.60;99.90;;;;;;10016886;28;20547;-67
2023/11/08 01:33:08;;;;;;;2.95;1.10;;;9.60;99.90;;;;;;10011049;28;20121;-66
2023/11/08 01:37:59;;;;;;;1.98;1.70;;;9.60;99.90;;;;;;10014641;28;20025;-67
2023/11/08 01:42:49;;;;;;;1.63;1.10;;;9.60;99.90;;;;;;10010852;28;20511;-67
2023/11/08 01:47:40;;;;;;;1.38;1.05;;;9.50;99.90;;;;;;10002494;28;20481;-68
2023/11/08 01:52:31;;;;;;;1.42;1.10;;;9.50;99.90;;;;;;10014782;28;20128;-67
2023/11/08 01:57:23;;;;;;;2.95;1.27;;;9.50;99.90;;;;;;10019446;28;20026;-67
2023/11/08 02:02:14;;;;;;;2.53;1.23;;;9.50;99.90;;;;;;10022216;28;20025;-66
2023/11/08 02:07:04;;;;;;;4.60;1.00;;;9.40;99.90;;;;;;10017446;28;20018;-67
2023/11/08 02:11:58;;;;;;;3.13;1.30;;;9.50;99.90;;;;;;10015663;28;20128;-68
2023/11/08 02:16:48;;;;;;;4.00;2.00;;;9.50;99.90;;;;;;10021672;28;20475;-67
2023/11/08 02:21:39;;;;;;;1.55;1.02;;;9.40;99.90;;;;;;9986894;28;20026;-68
2023/11/08 02:26:29;;;;;;;2.00;1.00;;;9.50;99.90;;;;;;10015899;28;20105;-67
2023/11/08 02:31:20;;;;;;;2.40;1.38;;;9.50;99.90;;;;;;10016740;28;20034;-67
2023/11/08 02:36:13;;;;;;;1.17;0.98;;;9.50;99.90;;;;;;10017418;28;20111;-68
2023/11/08 02:41:04;;;;;;;1.77;1.25;;;9.50;99.90;;;;;;10013898;28;20057;-68
2023/11/08 02:45:55;;;;;;;1.73;1.05;;;9.50;99.90;;;;;;10014252;28;20133;-67
2023/11/08 02:50:48;;;;;;;2.80;1.20;;;9.50;99.90;;;;;;10015902;28;20075;-69
2023/11/08 02:55:39;;;;;;;6.18;1.10;;;9.40;99.90;;;;;;10015499;28;20764;-67
2023/11/08 03:00:30;;;;;;;2.38;1.10;;;9.40;99.90;;;;;;10017450;28;20038;-67
2023/11/08 03:05:23;;;;;;;3.25;1.40;;;9.40;99.90;;;;;;10014284;28;20095;-67
2023/11/08 03:10:17;;;;;;;1.80;1.10;;;9.40;99.90;;;;;;10001674;28;20476;-66
2023/11/08 03:15:09;;;;;;;1.77;1.02;;;9.40;99.90;;;;;;10009232;28;20124;-67
2023/11/08 03:20:00;;;;;;;3.40;1.25;;;9.40;99.90;;;;;;10015386;28;20025;-67
2023/11/08 03:24:52;;;;;;;2.13;1.20;;;9.40;99.90;;;;;;10006283;28;20036;-69
2023/11/08 03:29:42;;;;;;;1.42;1.13;;;9.40;99.90;;;;;;10015195;28;20060;-66
2023/11/08 03:34:33;;;;;;;1.70;1.02;;;9.40;99.90;;;;;;10018611;28;20092;-69
2023/11/08 03:39:24;;;;;;;1.70;1.10;;;9.40;99.90;;;;;;10013223;28;20587;-69
2023/11/08 03:44:14;;;;;;;1.13;0.90;;;9.40;99.90;;;;;;9996192;28;20026;-65
2023/11/08 03:49:05;;;;;;;1.23;0.88;;;9.20;99.90;;;;;;10002286;28;20479;-66
2023/11/08 03:53:56;;;;;;;2.28;0.98;;;9.20;99.90;;;;;;10018455;28;20060;-67
2023/11/08 03:58:46;;;;;;;1.85;1.13;;;9.20;99.90;;;;;;10015144;28;20022;-66
2023/11/08 04:03:38;;;;;;;4.07;1.08;;;9.30;99.90;;;;;;10005276;28;20108;-67
2023/11/08 04:08:30;;;;;;;0.80;0.80;;;9.20;99.90;;;;;;10009244;28;20026;-67
2023/11/08 04:13:20;;;;;;;1.05;0.88;;;9.20;99.90;;;;;;10011819;28;20068;-67
2023/11/08 04:18:11;;;;;;;1.58;1.20;;;9.20;99.90;;;;;;10020609;28;20640;-66
2023/11/08 04:23:02;;;;;;;1.85;0.98;;;9.20;99.90;;;;;;10019971;28;20028;-66
2023/11/08 04:27:52;;;;;;;2.22;0.90;;;9.20;99.90;;;;;;10020697;28;20022;-65
2023/11/08 04:32:43;;;;;;;3.85;1.90;;;9.30;99.90;;;;;;10015972;28;20148;-66
2023/11/08 04:37:34;;;;;;;1.30;0.98;;;9.20;99.90;;;;;;10027632;28;20034;-66
2023/11/08 04:42:26;;;;;;;2.40;1.00;;;9.20;99.90;;;;;;10018625;28;20064;-66
2023/11/08 04:47:20;;;;;;;2.00;1.10;;;9.20;99.90;;;;;;10018618;28;20070;-69
2023/11/08 04:52:11;;;;;;;3.10;1.45;;;9.20;99.90;;;;;;10017068;28;20132;-67
2023/11/08 04:57:02;;;;;;;2.25;1.00;;;9.20;99.90;;;;;;10019897;28;20018;-67
2023/11/08 05:01:53;;;;;;;1.90;1.25;;;9.20;99.90;;;;;;10016648;28;20049;-67
2023/11/08 05:06:43;;;;;;;2.15;1.02;;;9.20;99.90;;;;;;10019788;28;20026;-67
2023/11/08 05:11:34;;;;;;;2.03;1.23;;;9.20;99.90;;;;;;10015827;28;20046;-65
2023/11/08 05:16:25;;;;;;;3.40;1.25;;;9.20;99.90;;;;;;10018644;28;20040;-65
2023/11/08 05:21:15;;;;;;;1.60;1.02;;;9.20;99.90;;;;;;10018785;28;20037;-65
2023/11/08 05:26:06;;;;;;;2.88;1.45;;;9.20;99.90;;;;;;10018444;28;20168;-67
2023/11/08 05:30:57;;;;;;;1.77;1.05;;;9.10;99.90;;;;;;10015776;28;20116;-67
2023/11/08 05:35:47;;;;;;;2.83;1.00;;;9.20;99.90;;;;;;10018504;28;20092;-66
2023/11/08 05:40:39;;;;;;;1.83;1.38;;;9.10;99.90;;;;;;10013103;28;20053;-66
2023/11/08 05:45:29;;;;;;;2.60;1.25;;;9.20;99.90;;;;;;10010741;28;20108;-66
2023/11/08 05:50:20;;;;;;;1.77;1.30;;;9.10;99.90;;;;;;10012216;28;20544;-67
2023/11/08 05:55:11;;;;;;;7.15;1.55;;;9.10;99.90;;;;;;10019644;28;20046;-66
2023/11/08 06:00:07;;;;;;;2.65;1.65;;;9.10;99.90;;;;;;10020664;28;20388;-66
2023/11/08 06:04:58;;;;;;;3.40;1.17;;;9.10;99.90;;;;;;10017591;28;20038;-67
2023/11/08 06:09:50;;;;;;;2.58;1.15;;;9.20;99.90;;;;;;10019092;28;20037;-69
2023/11/08 06:14:40;;;;;;;4.80;1.42;;;9.20;99.90;;;;;;10013767;28;20158;-66
2023/11/08 06:19:31;;;;;;;1.98;0.90;;;9.10;99.90;;;;;;10012462;28;20029;-70
2023/11/08 06:24:21;;;;;;;2.08;1.20;;;9.10;99.90;;;;;;10017024;28;20396;-67
2023/11/08 06:29:12;;;;;;;2.75;1.35;;;9.10;99.90;;;;;;10016551;28;20022;-68
2023/11/08 06:34:03;;;;;;;2.03;1.05;;;9.10;99.90;;;;;;10019472;28;20032;-66
2023/11/08 06:38:54;;;;;;;1.80;1.00;;;9.10;99.90;;;;;;10013910;28;20026;-66
2023/11/08 06:43:46;;;;;;;3.15;1.00;;;9.10;99.90;;;;;;10022070;28;20511;-67
2023/11/08 06:48:36;;;;;;;1.85;1.02;;;9.10;99.90;;;;;;10016271;28;20425;-65
2023/11/08 06:53:27;;;;;;;2.92;1.13;;;9.10;99.90;;;;;;10011433;28;20029;-66
2023/11/08 06:58:18;;;;;;;4.13;1.30;;;9.10;99.90;;;;;;10016076;28;20032;-68
2023/11/08 07:03:09;;;;;;;6.97;1.33;;;9.10;99.90;;;;;;10009890;28;20084;-66
2023/11/08 07:08:00;;;;;;;1.92;0.93;;;9.20;99.90;;;;;;10012620;28;20504;-69
2023/11/08 07:12:52;;;;;;;4.40;1.23;;;9.10;99.90;;;;;;10014963;28;20045;-66
2023/11/08 07:17:43;;;;;;;2.80;1.42;;;9.20;99.90;;;;;;10014094;28;20022;-71
2023/11/08 07:22:35;;;;;;;2.17;0.95;;;9.20;99.90;;;;;;10014914;28;20036;-65
2023/11/08 07:27:26;;;;;;;3.17;1.30;;;9.20;99.90;;;;;;10015559;28;20484;-67
2023/11/08 07:32:17;;;;;;;3.03;1.13;;;9.20;99.90;;;;;;10014785;28;20042;-65
2023/11/08 07:37:09;;;;;;;1.63;1.10;;;9.20;99.90;;;;;;10015753;28;20026;-65
2023/11/08 07:41:59;;;;;;;2.53;1.38;;;9.20;99.90;;;;;;10015165;28;20046;-67
2023/11/08 07:46:50;;;;;;;2.90;1.60;;;9.30;99.90;;;;;;10015121;28;20026;-69
2023/11/08 07:51:43;;;;;;;2.13;1.38;;;9.30;99.90;;;;;;10018433;28;20048;-65
2023/11/08 07:56:34;;;;;;;2.20;1.15;;;9.30;99.90;;;;;;10022179;28;20516;-65
2023/11/08 08:01:25;;;;;;;8.98;1.70;;;9.40;99.90;;;;;;10026752;28;20172;-68
2023/11/08 08:06:17;;;;;;;2.83;1.27;;;9.40;99.90;;;;;;10019206;28;20038;-67
2023/11/08 08:11:08;;;;;;;3.83;1.30;;;9.30;99.90;;;;;;10027867;28;20022;-65
2023/11/08 08:15:58;;;;;;;2.80;1.45;;;9.30;99.90;;;;;;10021255;28;20037;-67
2023/11/08 08:20:49;;;;;;;2.78;1.40;;;9.40;99.90;;;;;;10010999;28;20096;-69
2023/11/08 08:25:40;;;;;;;53.45;27.55;;;9.40;99.90;;;;;;10019847;28;20038;-67
2023/11/08 08:30:31;;;;;;;11.27;7.85;;;9.60;99.90;;;;;;10020244;28;20049;-66
2023/11/08 08:35:21;;;;;;;2.92;2.08;;;9.60;99.90;;;;;;10021301;28;20201;-65
2023/11/08 08:40:12;;;;;;;1.77;1.63;;;9.60;99.90;;;;;;10017512;28;20112;-67
2023/11/08 08:45:04;;;;;;;4.20;1.85;;;9.70;99.90;;;;;;10006043;28;20121;-65
2023/11/08 08:49:58;;;;;;;2.05;1.50;;;9.60;99.90;;;;;;10020447;28;20022;-70
2023/11/08 08:54:49;;;;;;;2.80;1.35;;;9.70;99.90;;;;;;10013865;28;20041;-69
2023/11/08 08:59:40;;;;;;;3.65;1.42;;;9.70;99.90;;;;;;10018338;28;20420;-71
2023/11/08 09:04:33;;;;;;;2.67;1.17;;;9.70;99.90;;;;;;10019701;28;20025;-69
2023/11/08 09:09:24;;;;;;;1.73;1.15;;;9.80;99.90;;;;;;10006110;28;20188;-68
2023/11/08 09:14:15;;;;;;;2.70;1.60;;;9.80;99.90;;;;;;10018487;28;20818;-69
2023/11/08 09:19:08;;;;;;;2.58;1.40;;;9.90;99.90;;;;;;10021158;28;20026;-71
2023/11/08 09:23:59;;;;;;;1.35;1.15;;;9.90;99.90;;;;;;10023012;28;20100;-68
2023/11/08 09:28:49;;;;;;;1.58;1.13;;;9.90;99.90;;;;;;10017126;28;20474;-68
2023/11/08 09:33:41;;;;;;;2.88;1.65;;;10.00;99.90;;;;;;10018581;28;20034;-70
2023/11/08 09:38:32;;;;;;;4.63;1.30;;;10.00;99.90;;;;;;10016276;28;20031;-72
2023/11/08 09:43:23;;;;;;;1.83;1.10;;;10.10;99.90;;;;;;10008243;28;20046;-68
2023/11/08 09:48:15;;;;;;;62.95;28.90;;;10.10;99.90;;;;;;10016843;28;20038;-67
2023/11/08 09:53:05;;;;;;;39.47;17.95;;;10.20;99.90;;;;;;10015612;28;20048;-67
2023/11/08 09:57:58;;;;;;;7.32;3.45;;;10.20;99.90;;;;;;10015870;28;20041;-67
2023/11/08 10:02:53;;;;;;;2.35;1.50;;;10.10;99.90;;;;;;10023171;28;20018;-69
2023/11/08 10:07:44;;;;;;;2.30;1.50;;;10.20;99.90;;;;;;10017756;28;20523;-69
2023/11/08 10:12:35;;;;;;;3.58;1.48;;;10.20;99.90;;;;;;9997419;28;20108;-69
2023/11/08 10:17:46;;;;;;;3.55;1.15;;;10.20;99.90;;;;;;9986518;28;20106;-69
2023/11/08 10:22:37;;;;;;;2.90;1.13;;;10.30;99.90;;;;;;10011413;28;20029;-67
2023/11/08 10:27:29;;;;;;;1.20;1.00;;;10.30;99.90;;;;;;10017185;28;20022;-66
2023/11/08 10:32:26;;;;;;;3.75;2.08;;;10.40;99.90;;;;;;10017107;28;20076;-67
2023/11/08 10:37:27;;;;;;;2.58;1.00;;;10.50;99.90;;;;;;10014919;28;20496;-65
2023/11/08 10:42:20;;;;;;;1.48;0.93;;;10.60;99.90;;;;;;10024549;28;20415;-64
2023/11/08 10:47:12;;;;;;;2.97;1.05;;;10.50;99.90;;;;;;10011227;28;20035;-67
2023/11/08 10:52:06;;;;;;;2.55;1.13;;;10.60;99.90;;;;;;10006354;28;20097;-70
2023/11/08 10:57:00;;;;;;;3.35;1.17;;;10.70;99.90;;;;;;10000818;28;20021;-68
2023/11/08 11:01:51;;;;;;;1.45;0.95;;;10.70;99.90;;;;;;10015958;28;20044;-69
2023/11/08 11:06:41;;;;;;;2.40;1.20;;;10.80;99.90;;;;;;10016047;28;20518;-71
2023/11/08 11:11:33;;;;;;;1.60;1.05;;;10.80;99.90;;;;;;10015707;28;20484;-70
2023/11/08 11:16:35;;;;;;;2.10;0.98;;;10.90;99.90;;;;;;10012205;28;20018;-70
2023/11/08 11:21:44;;;;;;;2.20;1.08;;;10.90;99.90;;;;;;10009894;28;20457;-67
2023/11/08 11:26:48;;;;;;;3.40;1.33;;;11.00;99.90;;;;;;10023276;28;20132;-68
2023/11/08 11:31:42;;;;;;;3.20;1.45;;;11.10;99.90;;;;;;10023534;28;20658;-68
2023/11/08 11:37:02;;;;;;;1.58;1.33;;;11.20;99.90;;;;;;10019233;28;20026;-67
2023/11/08 11:41:54;;;;;;;1.38;1.15;;;11.40;99.90;;;;;;10004482;28;20046;-69
2023/11/08 11:46:51;;;;;;;2.70;1.42;;;11.50;99.90;;;;;;10017595;28;20575;-67
2023/11/08 11:51:42;;;;;;;2.53;1.15;;;11.60;99.90;;;;;;10007552;28;20030;-70
2023/11/08 11:56:33;;;;;;;1.52;0.73;;;11.70;99.90;;;;;;10011878;28;20076;-67
2023/11/08 12:01:24;;;;;;;1.38;0.70;;;11.80;99.90;;;;;;10016939;28;20087;-68
2023/11/08 12:06:15;;;;;;;1.63;0.60;;;11.80;99.90;;;;;;10015938;28;20160;-69
2023/11/08 12:11:14;;;;;;;0.47;0.47;;;11.80;99.90;;;;;;10012337;28;20036;-67
2023/11/08 12:16:05;;;;;;;44.72;20.95;;;11.80;99.90;;;;;;10002977;28;20049;-67
2023/11/08 12:20:56;;;;;;;15.85;8.75;;;11.80;99.90;;;;;;10007861;28;20032;-69
2023/11/08 12:25:47;;;;;;;4.70;2.45;;;11.90;99.90;;;;;;10009941;28;20037;-71
2023/11/08 12:30:38;;;;;;;1.23;0.70;;;11.90;99.90;;;;;;9997692;28;20500;-70
2023/11/08 12:35:28;;;;;;;1.35;0.90;;;12.00;99.90;;;;;;9993462;28;20034;-71
2023/11/08 12:40:22;;;;;;;1.27;0.80;;;11.90;99.90;;;;;;10016649;28;20490;-71
2023/11/08 12:45:27;;;;;;;3.25;1.25;;;12.10;99.90;;;;;;10018221;28;20029;-73
2023/11/08 12:50:19;;;;;;;3.40;1.17;;;12.10;99.90;;;;;;10020847;28;20041;-68
2023/11/08 12:55:09;;;;;;;2.03;0.70;;;12.10;99.90;;;;;;10022938;28;20074;-67
2023/11/08 13:00:00;;;;;;;1.52;0.75;;;12.10;99.90;;;;;;10011032;28;20435;-70
2023/11/08 13:04:51;;;;;;;1.05;0.70;;;12.20;99.90;;;;;;10016158;28;20037;-69
2023/11/08 13:09:42;;;;;;;1.02;0.70;;;12.30;99.90;;;;;;10017903;28;20045;-69
2023/11/08 13:14:34;;;;;;;1.40;0.88;;;12.30;99.90;;;;;;10006595;28;20499;-70
2023/11/08 13:19:24;;;;;;;1.50;0.60;;;12.30;99.90;;;;;;9995131;28;20110;-70
2023/11/08 13:24:15;;;;;;;0.55;0.32;;;12.30;99.90;;;;;;10006411;28;20040;-70
2023/11/08 13:29:09;;;;;;;1.20;0.57;;;12.40;99.90;;;;;;10006280;28;20554;-68
2023/11/08 13:34:00;;;;;;;1.45;0.47;;;12.40;99.90;;;;;;9999669;28;20069;-68
2023/11/08 13:38:51;;;;;;;1.08;0.60;;;12.40;99.90;;;;;;10011271;28;20396;-66
2023/11/08 13:43:42;;;;;;;0.65;0.52;;;12.40;99.90;;;;;;10004816;28;20050;-67
2023/11/08 13:48:33;;;;;;;3.30;0.45;;;12.50;99.90;;;;;;10000436;28;20120;-69
2023/11/08 13:53:24;;;;;;;1.42;0.85;;;12.50;99.90;;;;;;10003515;28;20049;-70
2023/11/08 13:58:15;;;;;;;1.92;0.70;;;12.50;99.90;;;;;;10010237;28;20407;-69
2023/11/08 14:03:06;;;;;;;0.55;0.55;;;12.50;99.90;;;;;;10019853;28;20518;-70
2023/11/08 14:08:01;;;;;;;1.38;0.55;;;12.50;99.90;;;;;;10021873;28;20543;-68
2023/11/08 14:12:58;;;;;;;1.48;0.40;;;12.50;99.90;;;;;;10128879;28;21057;-69
2023/11/08 14:17:49;;;;;;;1.35;0.88;;;12.50;99.90;;;;;;10094686;28;20094;-66
2023/11/08 14:22:40;;;;;;;0.60;0.40;;;12.50;99.90;;;;;;10095845;28;20023;-65
2023/11/08 14:27:30;;;;;;;0.77;0.50;;;12.60;99.90;;;;;;10085831;28;20127;-69
2023/11/08 14:32:25;;;;;;;0.77;0.47;;;12.60;99.90;;;;;;10095928;28;20029;-68
2023/11/08 14:37:16;;;;;;;0.45;0.30;;;12.60;99.90;;;;;;10086044;28;20024;-72
2023/11/08 14:48:06;;;;;;;;;;;;;;;;;;;;;
2023/11/08 14:52:57;;;;;;;1.08;0.55;;;12.60;99.90;;;;;;10099209;28;20106;-67
2023/11/08 14:57:47;;;;;;;0.75;0.50;;;12.60;99.90;;;;;;10099188;28;20037;-66
2023/11/08 15:02:39;;;;;;;14.82;7.38;;;12.60;99.90;;;;;;10098794;28;20025;-68
2023/11/08 15:07:29;;;;;;;6.50;2.92;;;12.60;99.90;;;;;;10089657;28;20026;-66
2023/11/08 15:12:20;;;;;;;1.35;0.68;;;12.50;99.90;;;;;;10095087;28;20526;-67
2023/11/08 15:17:11;;;;;;;0.95;0.82;;;12.50;99.90;;;;;;10094015;28;20560;-65
2023/11/08 15:22:02;;;;;;;1.80;0.80;;;12.50;99.90;;;;;;10074793;28;20025;-65
2023/11/08 15:26:53;;;;;;;1.67;0.60;;;12.40;99.90;;;;;;10058164;28;20036;-64
2023/11/08 15:31:44;;;;;;;7.03;0.90;;;12.40;99.90;;;;;;10061600;28;20668;-65
2023/11/08 15:36:34;;;;;;;2.70;0.85;;;12.30;99.90;;;;;;10063391;28;20025;-66
2023/11/08 15:41:26;;;;;;;1.27;0.90;;;12.30;99.90;;;;;;10073227;28;20120;-64
2023/11/08 15:46:17;;;;;;;2.47;1.27;;;12.30;99.90;;;;;;10081573;28;20415;-63
2023/11/08 15:51:07;;;;;;;2.38;0.90;;;12.30;99.90;;;;;;10067458;28;20030;-64
2023/11/08 15:55:58;;;;;;;1.98;0.93;;;12.30;99.90;;;;;;10065193;28;20021;-64
2023/11/08 16:00:49;;;;;;;1.35;0.93;;;12.30;99.90;;;;;;10060475;28;20033;-66
2023/11/08 16:05:40;;;;;;;1.75;1.33;;;12.20;99.90;;;;;;10064884;28;20577;-63
2023/11/08 16:10:32;;;;;;;2.00;0.80;;;12.20;99.90;;;;;;10072311;28;20380;-66
2023/11/08 16:15:23;;;;;;;2.25;0.80;;;12.20;99.90;;;;;;10059040;28;20033;-67
2023/11/08 16:20:14;;;;;;;1.08;0.80;;;12.20;99.90;;;;;;10068148;28;20080;-67
2023/11/08 16:25:05;;;;;;;4.18;1.23;;;12.20;99.90;;;;;;10061941;28;20557;-71
2023/11/08 16:29:56;;;;;;;2.67;1.10;;;12.10;99.90;;;;;;10055977;28;20184;-70
2023/11/08 16:34:48;;;;;;;6.07;2.63;;;12.10;99.90;;;;;;10060876;28;20045;-68
2023/11/08 16:39:44;;;;;;;6.05;4.05;;;12.10;99.90;;;;;;10066079;28;20033;-67
2023/11/08 16:44:35;;;;;;;5.55;3.03;;;12.10;99.90;;;;;;10057505;28;20401;-67
2023/11/08 16:49:26;;;;;;;4.80;2.85;;;12.10;99.90;;;;;;10072064;28;20037;-66
2023/11/08 16:54:17;;;;;;;3.83;2.15;;;12.10;99.90;;;;;;10056454;28;20063;-67
2023/11/08 16:59:08;;;;;;;3.97;1.60;;;12.10;99.90;;;;;;10060157;28;20044;-70
2023/11/08 17:03:58;;;;;;;3.20;1.80;;;12.10;99.90;;;;;;10066672;28;20586;-65
2023/11/08 17:08:49;;;;;;;2.60;1.50;;;12.10;99.90;;;;;;10073200;28;20053;-66
2023/11/08 17:13:40;;;;;;;1.95;1.63;;;12.00;99.90;;;;;;10057729;28;20079;-70
2023/11/08 17:18:30;;;;;;;3.42;1.65;;;11.90;99.90;;;;;;10056219;28;20487;-73
2023/11/08 17:23:22;;;;;;;2.97;1.67;;;11.90;99.90;;;;;;10053990;28;20035;-69
2023/11/08 17:28:13;;;;;;;3.58;1.52;;;11.80;99.90;;;;;;10054853;28;20083;-69
2023/11/08 17:33:04;;;;;;;1.52;1.02;;;11.80;99.90;;;;;;10066492;28;20037;-65
2023/11/08 17:37:54;;;;;;;4.30;1.52;;;11.80;99.90;;;;;;10069448;28;20052;-65
2023/11/08 17:42:45;;;;;;;1.90;1.10;;;11.80;99.90;;;;;;10056740;28;20112;-67
2023/11/08 17:47:36;;;;;;;2.10;1.35;;;11.80;99.90;;;;;;10071165;28;20029;-67
2023/11/08 17:52:26;;;;;;;2.03;1.33;;;11.80;99.90;;;;;;10075425;28;20037;-67
2023/11/08 17:57:17;;;;;;;2.88;1.65;;;11.80;99.90;;;;;;10061883;28;20021;-66
2023/11/08 18:02:08;;;;;;;4.70;1.60;;;11.70;99.90;;;;;;10058831;28;20655;-66
2023/11/08 18:07:02;;;;;;;6.40;1.95;;;11.80;99.90;;;;;;10061340;28;20384;-66
2023/11/08 18:11:52;;;;;;;3.40;1.83;;;11.70;99.90;;;;;;10055740;28;20069;-65
2023/11/08 18:16:43;;;;;;;68.15;31.83;;;11.60;99.90;;;;;;10056403;28;20041;-68
2023/11/08 18:21:34;;;;;;;48.08;24.88;;;11.60;99.90;;;;;;10062516;28;20407;-65
2023/11/08 18:26:25;;;;;;;14.40;7.90;;;11.80;99.90;;;;;;10059624;28;20017;-66
2023/11/08 18:31:16;;;;;;;4.65;2.45;;;11.70;99.90;;;;;;10065293;28;20396;-67
2023/11/08 18:36:08;;;;;;;5.00;2.45;;;11.60;99.90;;;;;;10057301;28;20083;-66
2023/11/08 18:41:00;;;;;;;5.07;2.28;;;11.60;99.90;;;;;;10062454;28;20018;-67
2023/11/08 18:45:52;;;;;;;3.92;2.35;;;11.60;99.90;;;;;;10067046;28;20029;-69
2023/11/08 18:50:43;;;;;;;4.85;2.35;;;11.60;99.90;;;;;;10060950;28;20478;-65
2023/11/08 18:55:34;;;;;;;4.40;1.80;;;11.60;99.90;;;;;;10066273;28;20033;-66
2023/11/08 19:00:24;;;;;;;3.53;2.08;;;11.50;99.90;;;;;;10061509;28;20135;-65
2023/11/08 19:05:15;;;;;;;4.93;2.08;;;11.60;99.90;;;;;;10067170;28;20496;-65
2023/11/08 19:10:08;;;;;;;4.15;1.80;;;11.40;99.90;;;;;;10069568;28;20128;-66
2023/11/08 19:14:59;;;;;;;3.75;2.05;;;11.40;99.90;;;;;;10051241;28;20029;-64
2023/11/08 19:19:50;;;;;;;4.05;1.80;;;11.40;99.90;;;;;;10068928;28;20033;-65
2023/11/08 19:24:40;;;;;;;4.63;1.85;;;11.40;99.90;;;;;;10049654;28;20101;-65
2023/11/08 19:29:31;;;;;;;4.72;2.05;;;11.20;99.90;;;;;;10057920;28;20037;-64
2023/11/08 19:34:22;;;;;;;3.10;2.05;;;11.30;99.90;;;;;;10046228;28;20119;-64
2023/11/08 19:39:12;;;;;;;4.03;1.95;;;11.30;99.90;;;;;;10046938;28;20077;-66
2023/11/08 19:44:03;;;;;;;3.38;1.85;;;11.30;99.90;;;;;;10049354;28;20537;-65
2023/11/08 19:48:54;;;;;;;5.07;2.17;;;11.20;99.90;;;;;;10044982;28;20511;-65
2023/11/08 19:53:44;;;;;;;3.30;2.17;;;11.20;99.90;;;;;;10040485;28;20029;-65
2023/11/08 19:58:38;;;;;;;4.07;2.30;;;11.20;99.90;;;;;;10036292;28;20648;-69
2023/11/08 20:03:29;;;;;;;4.18;1.90;;;11.20;99.90;;;;;;10051162;28;20112;-67
2023/11/08 20:08:20;;;;;;;4.00;2.30;;;11.20;99.90;;;;;;10056732;28;20105;-69
2023/11/08 20:13:11;;;;;;;3.05;2.10;;;11.20;99.90;;;;;;10058809;28;20041;-69
2023/11/08 20:18:02;;;;;;;3.67;2.15;;;11.10;99.90;;;;;;10049539;28;20606;-69
2023/11/08 20:22:52;;;;;;;3.28;1.90;;;11.10;99.90;;;;;;10059974;28;20068;-70
2023/11/08 20:27:43;;;;;;;4.22;2.13;;;11.10;99.90;;;;;;10068814;28;20668;-70
2023/11/08 20:32:37;;;;;;;4.22;1.85;;;11.10;99.90;;;;;;10072654;28;20040;-71
2023/11/08 20:37:28;;;;;;;4.03;1.77;;;11.10;99.90;;;;;;10074453;28;20029;-73
2023/11/08 20:42:19;;;;;;;3.83;1.88;;;11.00;99.90;;;;;;10066341;28;20486;-70
2023/11/08 20:47:10;;;;;;;6.03;2.28;;;11.00;99.90;;;;;;10064485;28;20071;-69
2023/11/08 20:52:01;;;;;;;5.13;2.53;;;11.00;99.90;;;;;;10069882;28;20091;-71
2023/11/08 20:56:52;;;;;;;3.60;1.70;;;11.00;99.90;;;;;;10077643;28;20021;-71
2023/11/08 21:01:44;;;;;;;4.00;2.20;;;11.00;99.90;;;;;;10061703;28;20108;-67
2023/11/08 21:06:35;;;;;;;4.32;1.95;;;11.00;99.90;;;;;;10060368;28;20034;-66
2023/11/08 21:11:25;;;;;;;2.88;2.33;;;11.00;99.90;;;;;;10074751;28;20049;-67
2023/11/08 21:16:16;;;;;;;3.90;2.28;;;10.80;99.90;;;;;;10063147;28;20029;-73
2023/11/08 21:21:07;;;;;;;3.85;2.30;;;10.80;99.90;;;;;;10079503;28;20027;-72
2023/11/08 21:25:58;;;;;;;5.63;2.58;;;10.70;99.90;;;;;;10054661;28;20116;-72
2023/11/08 21:30:49;;;;;;;4.78;2.25;;;10.70;99.90;;;;;;10060749;28;20532;-70
2023/11/08 21:35:40;;;;;;;3.22;2.45;;;10.70;99.90;;;;;;10068659;28;20088;-68
2023/11/08 21:40:31;;;;;;;4.93;2.80;;;10.70;99.90;;;;;;10062724;28;20103;-68
2023/11/08 21:45:21;;;;;;;5.43;2.20;;;10.70;99.90;;;;;;10062093;28;20072;-72
2023/11/08 21:50:12;;;;;;;3.13;2.53;;;10.70;99.90;;;;;;10061802;28;20102;-70
2023/11/08 21:55:04;;;;;;;3.13;2.70;;;10.70;99.90;;;;;;10058722;28;20018;-71
2023/11/08 21:59:55;;;;;;;6.40;2.35;;;10.60;99.90;;;;;;10060079;28;20049;-67
2023/11/08 22:04:46;;;;;;;4.40;2.60;;;10.60;99.90;;;;;;10061664;28;20041;-66
2023/11/08 22:09:39;;;;;;;4.82;2.60;;;10.60;99.90;;;;;;10063438;28;20055;-66
2023/11/08 22:14:35;;;;;;;4.07;2.58;;;10.50;99.90;;;;;;10062324;28;20439;-65
2023/11/08 22:19:25;;;;;;;4.90;2.75;;;10.40;99.90;;;;;;10104516;28;20032;-67
2023/11/08 22:24:16;;;;;;;3.67;2.60;;;10.50;99.90;;;;;;10054661;28;20033;-68
2023/11/08 22:29:07;;;;;;;4.35;2.58;;;10.50;99.90;;;;;;10058631;28;20119;-68
2023/11/08 22:33:58;;;;;;;3.53;2.35;;;10.40;99.90;;;;;;10069668;28;20025;-66
2023/11/08 22:38:48;;;;;;;5.18;2.78;;;10.40;99.90;;;;;;10073790;28;20536;-66
2023/11/08 22:43:39;;;;;;;4.60;2.67;;;10.50;99.90;;;;;;10083322;28;20072;-66
2023/11/08 22:48:29;;;;;;;7.63;2.72;;;10.40;99.90;;;;;;10068109;28;20029;-66
2023/11/08 22:53:23;;;;;;;3.28;2.13;;;10.40;99.90;;;;;;10067621;28;20017;-65
2023/11/08 22:58:13;;;;;;;3.88;2.30;;;10.50;99.90;;;;;;10074401;28;20029;-65
2023/11/08 23:03:04;;;;;;;4.88;2.20;;;10.50;99.90;;;;;;10066757;28;20041;-66
2023/11/08 23:07:55;;;;;;;3.38;2.00;;;10.40;99.90;;;;;;10061188;28;20025;-66
2023/11/08 23:12:45;;;;;;;6.20;2.05;;;10.30;99.90;;;;;;10065884;28;20441;-66
2023/11/08 23:17:36;;;;;;;6.28;2.47;;;10.30;99.90;;;;;;10066685;28;20021;-66
2023/11/08 23:22:27;;;;;;;3.60;2.10;;;10.40;99.90;;;;;;10062182;28;20029;-66
2023/11/08 23:27:17;;;;;;;2.63;2.03;;;10.40;99.90;;;;;;10069066;28;20450;-65
2023/11/08 23:32:08;;;;;;;5.03;2.53;;;10.40;99.90;;;;;;10064122;28;20029;-66
2023/11/08 23:36:59;;;;;;;6.03;2.10;;;10.40;99.90;;;;;;10067605;28;20460;-66
2023/11/08 23:41:49;;;;;;;3.58;2.25;;;10.30;99.90;;;;;;10067649;28;20034;-65
2023/11/08 23:46:40;;;;;;;3.70;1.95;;;10.30;99.90;;;;;;10066839;28;20115;-66
2023/11/08 23:51:31;;;;;;;2.90;2.10;;;10.40;99.90;;;;;;10073228;28;20029;-65
2023/11/08 23:56:21;;;;;;;2.95;2.33;;;10.30;99.90;;;;;;10073446;28;20044;-64
